createdAt,value
2019-03-23T00:00:30.186Z,89.71
2019-03-23T00:03:37.632Z,89.85
2019-03-23T00:06:44.536Z,90.28
2019-03-23T00:09:51.680Z,89.58
2019-03-23T00:12:59.234Z,89.71
2019-03-23T00:16:06.246Z,89.92
2019-03-23T00:19:13.180Z,90.39
2019-03-23T00:22:20.359Z,89.85
2019-03-23T00:25:27.786Z,90.26
2019-03-23T00:28:34.728Z,89.68
2019-03-23T00:31:41.699Z,89.31
2019-03-23T00:34:48.999Z,89.36
2019-03-23T00:37:56.494Z,89.43
2019-03-23T00:41:03.791Z,89.01
2019-03-23T00:44:11.305Z,90.40
2019-03-23T00:47:19.310Z,90.01
2019-03-23T00:50:26.424Z,89.03
2019-03-23T00:53:33.355Z,90.19
2019-03-23T00:56:40.672Z,90.62
2019-03-23T00:59:47.652Z,91.05
2019-03-23T01:02:54.994Z,91.01
2019-03-23T01:06:02.137Z,90.84
2019-03-23T01:09:09.583Z,90.53
2019-03-23T01:12:17.274Z,90.91
2019-03-23T01:15:24.336Z,91.18
2019-03-23T01:18:31.360Z,89.94
2019-03-23T01:21:38.877Z,89.36
2019-03-23T01:24:46.754Z,90.07
2019-03-23T01:27:53.696Z,91.25
2019-03-23T01:31:00.941Z,91.65
2019-03-23T01:34:08.114Z,91.63
2019-03-23T01:37:15.332Z,91.57
2019-03-23T01:40:22.518Z,90.88
2019-03-23T01:43:29.624Z,90.61
2019-03-23T01:46:36.997Z,91.24
2019-03-23T01:49:44.034Z,91.36
2019-03-23T01:52:50.931Z,91.07
2019-03-23T01:55:57.943Z,90.98
2019-03-23T01:59:05.262Z,91.30
2019-03-23T02:02:12.054Z,91.65
2019-03-23T02:05:19.981Z,91.90
2019-03-23T02:08:26.893Z,91.78
2019-03-23T02:11:34.330Z,91.98
2019-03-23T02:14:41.151Z,91.57
2019-03-23T02:17:48.167Z,91.91
2019-03-23T02:20:55.504Z,92.11
2019-03-23T02:24:02.518Z,92.15
2019-03-23T02:27:09.624Z,90.93
2019-03-23T02:30:17.099Z,90.73
2019-03-23T02:33:24.229Z,91.83
2019-03-23T02:36:31.153Z,92.20
2019-03-23T02:39:38.092Z,92.41
2019-03-23T02:42:44.881Z,92.54
2019-03-23T02:45:51.618Z,92.22
2019-03-23T02:48:58.693Z,91.40
2019-03-23T02:52:05.666Z,91.69
2019-03-23T02:55:13.432Z,92.03
2019-03-23T02:58:20.528Z,91.75
2019-03-23T03:01:28.025Z,91.44
2019-03-23T03:04:34.925Z,91.93
2019-03-23T03:07:43.567Z,91.70
2019-03-23T03:10:50.573Z,92.24
2019-03-23T03:13:57.781Z,92.36
2019-03-23T03:17:04.841Z,91.91
2019-03-23T03:20:12.171Z,91.76
2019-03-23T03:23:19.814Z,92.06
2019-03-23T03:26:27.198Z,91.05
2019-03-23T03:29:34.456Z,90.61
2019-03-23T03:32:41.874Z,91.87
2019-03-23T03:35:48.798Z,92.08
2019-03-23T03:38:56.165Z,92.15
2019-03-23T03:42:03.263Z,92.58
2019-03-23T03:45:11.920Z,92.85
2019-03-23T03:48:18.937Z,92.47
2019-03-23T03:51:26.422Z,92.14
2019-03-23T03:54:34.450Z,92.34
2019-03-23T03:57:42.003Z,91.95
2019-03-23T04:00:52.653Z,91.91
2019-03-23T04:04:00.097Z,91.79
2019-03-23T04:07:09.273Z,91.79
2019-03-23T04:10:17.031Z,91.89
2019-03-23T04:13:25.785Z,92.29
2019-03-23T04:16:33.033Z,92.63
2019-03-23T04:19:40.397Z,92.66
2019-03-23T04:22:47.524Z,92.40
2019-03-23T04:25:54.792Z,92.19
2019-03-23T04:29:01.832Z,92.23
2019-03-23T04:32:09.856Z,91.93
2019-03-23T04:35:17.283Z,91.77
2019-03-23T04:38:24.443Z,91.90
2019-03-23T04:41:31.885Z,92.44
2019-03-23T04:44:39.054Z,92.57
2019-03-23T04:47:47.019Z,92.64
2019-03-23T04:50:53.989Z,93.10
2019-03-23T04:54:01.230Z,92.95
2019-03-23T04:57:08.193Z,93.09
2019-03-23T05:00:16.383Z,92.82
2019-03-23T05:03:23.511Z,92.56
2019-03-23T05:06:31.691Z,92.39
2019-03-23T05:09:38.617Z,92.63
2019-03-23T05:12:46.004Z,92.88
2019-03-23T05:15:53.306Z,93.03
2019-03-23T05:19:00.152Z,92.86
2019-03-23T05:22:07.660Z,92.68
2019-03-23T05:25:24.531Z,92.89
2019-03-23T05:28:31.777Z,92.96
2019-03-23T05:31:38.728Z,93.01
2019-03-23T05:34:45.816Z,92.97
2019-03-23T05:37:52.719Z,92.96
2019-03-23T05:40:59.606Z,92.58
2019-03-23T05:44:06.436Z,92.78
2019-03-23T05:47:13.635Z,92.63
2019-03-23T05:50:21.938Z,92.33
2019-03-23T05:53:29.183Z,92.04
2019-03-23T05:56:36.462Z,92.07
2019-03-23T05:59:43.531Z,92.12
2019-03-23T06:02:50.774Z,91.81
2019-03-23T06:05:58.279Z,91.47
2019-03-23T06:09:07.439Z,91.28
2019-03-23T06:12:17.726Z,90.87
2019-03-23T06:15:24.957Z,90.64
2019-03-23T06:18:32.081Z,91.47
2019-03-23T06:21:39.627Z,92.69
2019-03-23T06:24:47.398Z,92.57
2019-03-23T06:27:56.210Z,91.90
2019-03-23T06:31:04.431Z,91.35
2019-03-23T06:34:11.403Z,91.15
2019-03-23T06:37:18.819Z,91.13
2019-03-23T06:40:25.876Z,91.19
2019-03-23T06:43:33.114Z,91.37
2019-03-23T06:46:41.285Z,91.06
2019-03-23T06:49:48.465Z,89.85
2019-03-23T06:52:55.517Z,87.44
2019-03-23T06:56:02.776Z,85.51
2019-03-23T06:59:09.870Z,83.63
2019-03-23T07:02:17.252Z,83.14
2019-03-23T07:05:24.372Z,82.33
2019-03-23T07:08:32.368Z,80.92
2019-03-23T07:11:39.888Z,79.67
2019-03-23T07:14:46.816Z,79.05
2019-03-23T07:17:54.142Z,75.19
2019-03-23T07:21:01.009Z,75.30
2019-03-23T07:24:08.365Z,73.33
2019-03-23T07:27:15.823Z,74.39
2019-03-23T07:30:23.576Z,75.04
2019-03-23T07:33:31.183Z,75.44
2019-03-23T07:36:39.120Z,74.42
2019-03-23T07:39:47.164Z,74.87
2019-03-23T07:42:54.149Z,76.46
2019-03-23T07:46:01.583Z,76.38
2019-03-23T07:49:09.190Z,75.66
2019-03-23T07:52:16.687Z,75.02
2019-03-23T07:55:23.807Z,73.17
2019-03-23T07:58:30.909Z,73.23
2019-03-23T08:01:38.503Z,73.72
2019-03-23T08:04:45.374Z,73.21
2019-03-23T08:07:52.364Z,72.62
2019-03-23T08:10:59.853Z,72.27
2019-03-23T08:14:07.084Z,71.17
2019-03-23T08:17:14.252Z,69.13
2019-03-23T08:20:21.305Z,69.74
2019-03-23T08:23:28.420Z,70.55
2019-03-23T08:26:36.297Z,69.29
2019-03-23T08:29:43.251Z,67.77
2019-03-23T08:32:53.133Z,66.84
2019-03-23T08:36:00.292Z,65.92
2019-03-23T08:39:08.418Z,62.65
2019-03-23T08:42:15.867Z,60.85
2019-03-23T08:45:23.385Z,57.84
2019-03-23T08:48:30.631Z,58.96
2019-03-23T08:51:37.903Z,58.35
2019-03-23T08:54:44.634Z,56.80
2019-03-23T08:57:51.839Z,54.07
2019-03-23T09:01:00.394Z,54.07
2019-03-23T09:04:08.757Z,49.84
2019-03-23T09:07:15.988Z,50.14
2019-03-23T09:10:23.955Z,48.42
2019-03-23T09:13:40.255Z,49.11
2019-03-23T09:16:41.022Z,47.76
2019-03-23T09:19:48.348Z,46.56
2019-03-23T09:22:55.572Z,46.48
2019-03-23T09:26:02.586Z,43.92
2019-03-23T09:29:09.882Z,44.43
2019-03-23T09:32:17.109Z,45.31
2019-03-23T09:35:24.741Z,45.82
2019-03-23T09:38:31.975Z,43.92
2019-03-23T09:41:39.218Z,42.67
2019-03-23T09:44:46.079Z,43.18
2019-03-23T09:47:53.295Z,43.57
2019-03-23T09:51:01.094Z,42.82
2019-03-23T09:54:08.391Z,42.20
2019-03-23T09:57:15.468Z,41.13
2019-03-23T10:00:22.769Z,41.55
2019-03-23T10:03:29.847Z,43.29
2019-03-23T10:06:37.499Z,41.29
2019-03-23T10:09:44.497Z,41.70
2019-03-23T10:12:53.190Z,41.43
2019-03-23T10:16:00.389Z,40.48
2019-03-23T10:19:07.496Z,41.93
2019-03-23T10:22:14.508Z,44.23
2019-03-23T10:25:21.851Z,45.25
2019-03-23T10:28:29.902Z,45.58
2019-03-23T10:31:42.793Z,45.62
2019-03-23T10:34:51.837Z,47.60
2019-03-23T10:37:59.566Z,45.50
2019-03-23T10:41:09.359Z,46.31
2019-03-23T10:44:16.315Z,46.37
2019-03-23T10:47:23.415Z,44.87
2019-03-23T10:50:31.233Z,46.03
2019-03-23T10:53:38.762Z,45.78
2019-03-23T10:56:46.141Z,44.88
2019-03-23T10:59:53.118Z,44.26
2019-03-23T11:03:00.868Z,44.29
2019-03-23T11:06:08.456Z,44.28
2019-03-23T11:09:15.917Z,44.71
2019-03-23T11:12:23.881Z,44.18
2019-03-23T11:15:30.636Z,44.15
2019-03-23T11:18:37.961Z,44.35
2019-03-23T11:21:44.942Z,43.84
2019-03-23T11:24:52.316Z,44.95
2019-03-23T11:27:59.402Z,42.47
2019-03-23T11:31:06.970Z,42.80
2019-03-23T11:34:18.067Z,41.39
2019-03-23T11:37:23.523Z,41.71
2019-03-23T11:40:30.859Z,41.38
2019-03-23T11:43:38.483Z,41.03
2019-03-23T11:46:45.838Z,41.69
2019-03-23T11:49:53.487Z,41.09
2019-03-23T11:53:00.821Z,42.00
2019-03-23T11:56:08.852Z,40.82
2019-03-23T11:59:16.438Z,40.30
2019-03-23T12:02:23.543Z,41.30
2019-03-23T12:05:32.127Z,40.01
2019-03-23T12:08:40.151Z,41.52
2019-03-23T12:11:48.442Z,40.39
2019-03-23T12:14:56.272Z,41.01
2019-03-23T12:18:04.018Z,42.32
2019-03-23T12:21:11.773Z,41.17
2019-03-23T12:24:18.432Z,40.35
2019-03-23T12:27:25.758Z,41.66
2019-03-23T12:30:32.869Z,41.18
2019-03-23T12:33:40.559Z,41.44
2019-03-23T12:36:48.047Z,40.96
2019-03-23T12:39:56.303Z,40.80
2019-03-23T12:43:03.423Z,40.99
2019-03-23T12:46:10.728Z,40.90
2019-03-23T12:49:18.224Z,42.11
2019-03-23T12:52:25.754Z,40.86
2019-03-23T12:55:33.881Z,40.99
2019-03-23T12:58:41.184Z,40.50
2019-03-23T13:01:48.432Z,39.74
2019-03-23T13:04:55.815Z,39.65
2019-03-23T13:08:03.088Z,39.26
2019-03-23T13:11:10.458Z,39.49
2019-03-23T13:14:17.799Z,39.89
2019-03-23T13:17:25.948Z,40.52
2019-03-23T13:23:40.519Z,39.91
2019-03-23T13:26:47.521Z,40.01
2019-03-23T13:29:56.021Z,40.12
2019-03-23T13:33:04.768Z,39.51
2019-03-23T13:36:12.458Z,39.82
2019-03-23T13:39:19.708Z,39.70
2019-03-23T13:42:27.265Z,40.20
2019-03-23T13:45:42.374Z,39.92
2019-03-23T13:48:43.678Z,40.20
2019-03-23T13:51:51.087Z,39.94
2019-03-23T13:54:59.287Z,39.80
2019-03-23T13:58:13.541Z,40.53
2019-03-23T14:01:25.014Z,40.19
2019-03-23T14:04:32.736Z,41.29
2019-03-23T14:07:39.912Z,41.37
2019-03-23T14:10:46.980Z,40.83
2019-03-23T14:13:54.851Z,40.84
2019-03-23T14:17:02.091Z,41.15
2019-03-23T14:20:09.540Z,40.94
2019-03-23T14:23:16.619Z,41.18
2019-03-23T14:26:24.150Z,40.34
2019-03-23T14:29:31.274Z,40.17
2019-03-23T14:32:39.468Z,40.32
2019-03-23T14:35:46.954Z,40.18
2019-03-23T14:38:55.146Z,39.45
2019-03-23T14:42:05.119Z,39.59
2019-03-23T14:45:12.345Z,38.94
2019-03-23T14:48:19.687Z,39.54
2019-03-23T14:51:27.791Z,39.42
2019-03-23T14:54:36.534Z,40.62
2019-03-23T14:57:43.821Z,39.52
2019-03-23T15:00:51.076Z,41.12
2019-03-23T15:03:58.305Z,42.53
2019-03-23T15:07:05.724Z,41.07
2019-03-23T15:10:13.569Z,41.29
2019-03-23T15:13:24.405Z,43.08
2019-03-23T15:16:31.606Z,44.06
2019-03-23T15:19:38.914Z,45.04
2019-03-23T15:22:47.557Z,45.66
2019-03-23T15:25:54.906Z,48.52
2019-03-23T15:29:02.286Z,51.25
2019-03-23T15:32:09.394Z,52.17
2019-03-23T15:35:16.604Z,53.41
2019-03-23T15:38:23.680Z,53.70
2019-03-23T15:41:31.116Z,55.70
2019-03-23T15:44:38.127Z,55.67
2019-03-23T15:47:45.476Z,55.90
2019-03-23T15:50:52.876Z,55.96
2019-03-23T15:54:00.207Z,56.47
2019-03-23T15:57:07.089Z,57.43
2019-03-23T16:00:14.402Z,57.28
2019-03-23T16:03:22.219Z,57.62
2019-03-23T16:06:29.277Z,58.06
2019-03-23T16:09:36.608Z,58.69
2019-03-23T16:12:44.398Z,58.78
2019-03-23T16:15:51.695Z,58.75
2019-03-23T16:18:58.780Z,60.01
2019-03-23T16:22:05.944Z,59.64
2019-03-23T16:25:15.002Z,58.23
2019-03-23T16:28:22.663Z,58.62
2019-03-23T16:31:29.840Z,58.53
2019-03-23T16:34:37.861Z,57.57
2019-03-23T16:37:45.035Z,57.89
2019-03-23T16:40:52.553Z,57.85
2019-03-23T16:44:01.314Z,57.92
2019-03-23T16:47:08.402Z,57.51
2019-03-23T16:50:16.061Z,58.95
2019-03-23T16:53:23.071Z,58.38
2019-03-23T16:56:30.638Z,57.86
2019-03-23T16:59:38.374Z,57.52
2019-03-23T17:02:45.327Z,58.49
2019-03-23T17:05:53.756Z,57.53
2019-03-23T17:09:00.920Z,57.17
2019-03-23T17:12:09.450Z,57.23
2019-03-23T17:15:16.981Z,57.46
2019-03-23T17:18:24.291Z,58.75
2019-03-23T17:21:32.031Z,57.90
2019-03-23T17:24:39.519Z,58.63
2019-03-23T17:27:47.331Z,58.77
2019-03-23T17:30:56.821Z,59.36
2019-03-23T17:34:04.104Z,58.37
2019-03-23T17:37:11.277Z,58.75
2019-03-23T17:40:18.349Z,59.33
2019-03-23T17:43:25.512Z,59.38
2019-03-23T17:46:32.718Z,60.07
2019-03-23T17:49:40.251Z,59.92
2019-03-23T17:52:47.549Z,60.09
2019-03-23T17:55:54.620Z,60.42
2019-03-23T19:36:08.883Z,61.22
2019-03-23T19:39:15.320Z,61.86
2019-03-23T19:42:20.256Z,61.80
2019-03-23T19:45:27.302Z,61.97
2019-03-23T19:48:32.493Z,62.13
2019-03-23T19:51:41.029Z,62.35
2019-03-23T19:54:46.397Z,62.29
2019-03-23T19:57:54.581Z,62.12
2019-03-23T20:00:57.744Z,62.92
2019-03-23T20:04:02.676Z,62.50
2019-03-23T20:07:08.509Z,62.01
2019-03-23T20:10:14.492Z,62.93
2019-03-23T20:13:19.857Z,63.73
2019-03-23T20:16:25.463Z,64.56
2019-03-23T20:19:30.902Z,64.56
2019-03-23T20:22:35.691Z,64.76
2019-03-23T20:25:40.067Z,64.76
2019-03-23T20:28:45.726Z,65.14
2019-03-23T20:31:50.302Z,65.06
2019-03-23T20:34:55.668Z,65.19
2019-03-23T20:38:00.212Z,65.25
2019-03-23T20:41:06.779Z,64.34
2019-03-23T20:44:11.510Z,63.93
2019-03-23T20:47:19.428Z,64.46
2019-03-23T20:50:24.616Z,64.62
2019-03-23T20:53:29.482Z,64.71
2019-03-23T20:56:35.717Z,65.51
2019-03-23T20:59:40.614Z,67.23
2019-03-23T21:02:45.518Z,66.39
2019-03-23T21:05:52.979Z,66.64
2019-03-23T21:08:58.418Z,67.06
2019-03-23T21:12:04.133Z,68.57
2019-03-23T21:15:08.890Z,68.45
2019-03-23T21:18:13.885Z,70.78
2019-03-23T21:21:20.908Z,69.59
2019-03-23T21:24:26.297Z,69.19
2019-03-23T21:27:32.160Z,69.19
2019-03-23T21:30:37.350Z,68.58
2019-03-23T21:33:44.342Z,68.15
2019-03-23T21:36:49.521Z,72.37
2019-03-23T21:39:54.425Z,70.28
2019-03-23T21:42:59.309Z,68.87
2019-03-23T21:46:04.281Z,68.74
2019-03-23T21:49:09.392Z,69.54
2019-03-23T21:52:14.292Z,68.77
2019-03-23T21:55:19.353Z,68.38
2019-03-23T22:01:45.392Z,67.85
2019-03-23T22:04:50.613Z,66.86
2019-03-23T22:07:55.393Z,67.11
2019-03-23T22:11:00.323Z,66.67
2019-03-23T22:14:06.060Z,69.91
2019-03-23T22:17:11.226Z,69.64
2019-03-23T22:20:16.478Z,67.38
2019-03-23T22:23:23.498Z,67.69
2019-03-23T22:26:30.205Z,66.76
2019-03-23T22:29:35.403Z,66.23
2019-03-23T22:32:40.312Z,66.00
2019-03-23T22:35:45.418Z,66.28
2019-03-23T22:38:50.807Z,66.22
2019-03-23T22:41:56.970Z,66.29
2019-03-23T22:45:02.956Z,66.29
2019-03-23T22:48:08.311Z,69.52
2019-03-23T22:51:14.770Z,66.96
2019-03-23T22:54:19.354Z,66.80
2019-03-23T22:57:24.892Z,67.86
2019-03-23T23:00:34.298Z,66.56
2019-03-23T23:03:40.308Z,66.56
2019-03-23T23:06:46.118Z,66.63
2019-03-23T23:09:51.014Z,66.21
2019-03-23T23:12:56.534Z,66.60
2019-03-23T23:16:01.660Z,66.63
2019-03-23T23:19:06.760Z,67.73
2019-03-23T23:22:10.830Z,66.41
2019-03-23T23:25:16.285Z,66.28
2019-03-23T23:28:21.655Z,66.28
2019-03-23T23:31:27.544Z,68.30
2019-03-23T23:34:31.843Z,66.79
2019-03-23T23:37:37.396Z,66.41
2019-03-23T23:40:42.520Z,66.41
2019-03-23T23:43:47.765Z,66.44
2019-03-23T23:46:51.883Z,66.28
2019-03-23T23:49:56.734Z,66.24
2019-03-23T23:53:00.723Z,66.24
2019-03-23T23:56:05.353Z,66.21
2019-03-23T23:59:11.504Z,66.27
